Angola, New York
Current Conditions -  °F | °C
As of 11:53 AM on Saturday 25 Oct 2014 (Local Time) from KDKK Reporting Station
Light Rain Light Rain  
Wind Chill: 64°   Ceiling: Unl
Heat Index: 64°   Visibility: 10mi
Dew Point: 47°   Wind: 12mph
Humidity: 54%   Direction: 230°SW
Pressure: 29.73"   Gusts: 24mph
Location:  42.64°N, 79.03°W
Report Text: KDKK 251553Z AUTO 23010G21KT 10SM -RA CLR 18/08 A2973 RMK AO2 SLP068 P0000 T01780083
Loading
Personal Weather Stations






























Interactive Weather Map New forecast layout! Learn more

10-Day Weather Forecast

Advertisements
Track Severe Weather on mobile